This is the latest recevied weather packets stored in our database for station/object VY2CRA-4. If no packets are shown the sender has not sent any weather packets the latest 10 day(s).
| Time | Temp. | Humidity | Pressure | Rain* | Wind** | Luminosity | Snow |
|---|---|---|---|---|---|---|---|
| 1788440962 | 30° C | 19% | 1017.8 hPa | 0 mm | - | - | - |
| 1788436158 | 29.44° C | 26% | 1018.1 hPa | 0 mm | - | - | - |
| 1788434957 | 26.11° C | 35% | 1018.4 hPa | 0 mm | - | - | - |
| 1788433756 | 23.89° C | 42% | 1018.5 hPa | 0 mm | - | - | - |
| 1788432555 | 21.67° C | 51% | 1018.5 hPa | 0 mm | - | - | - |
| 1788431354 | 18.89° C | 53% | 1018.5 hPa | 0 mm | - | - | - |
| 1788430153 | 18.89° C | 52% | 1018.3 hPa | 0 mm | - | - | - |
| 1788427751 | 18.33° C | 50% | 1018.5 hPa | 0 mm | - | - | - |
| 1788426550 | 18.33° C | 49% | 1018.4 hPa | 0 mm | - | - | - |
| 1788425349 | 18.89° C | 49% | 1018.4 hPa | 0 mm | - | - | - |
| 1788424148 | 18.89° C | 50% | 1018.5 hPa | 0 mm | - | - | - |
| 1788421752 | 18.33° C | 49% | 1018.5 hPa | 0 mm | - | - | - |
| 1788420546 | 18.33° C | 49% | 1018.6 hPa | 0 mm | - | - | - |
| 1788419345 | 18.33° C | 48% | 1018.8 hPa | 0 mm | - | - | - |
| 1788418159 | 18.33° C | 48% | 1018.7 hPa | 0 mm | - | - | - |
| 1788416943 | 18.33° C | 47% | 1018.6 hPa | 0 mm | - | - | - |
| 1788415742 | 18.33° C | 47% | 1018.5 hPa | 0 mm | - | - | - |
| 1788414558 | 18.33° C | 47% | 1018.4 hPa | 0 mm | - | - | - |
| 1788413340 | 18.33° C | 47% | 1018.8 hPa | 0 mm | - | - | - |
| 1788412139 | 18.33° C | 47% | 1018.9 hPa | 0 mm | - | - | - |
| 1788410938 | 18.33° C | 47% | 1018.8 hPa | 0 mm | - | - | - |
| 1788409737 | 18.33° C | 44% | 1019.1 hPa | 0 mm | - | - | - |
| 1788408536 | 18.33° C | 43% | 1019 hPa | 0 mm | - | - | - |
| 1788407335 | 18.33° C | 42% | 1019 hPa | 0 mm | - | - | - |
| 1788406134 | 18.89° C | 41% | 1019 hPa | 0 mm | - | - | - |
* Rain since midnight (hover to see other rain measurements)
** Current wind speed in m/s (hover to see current wind gust speed)